Time;durP1;ratioP1;P1;durP2;ratioP2;P2;SDS_P1;SDS_P2;PMS_P1;PMS_P2;Temp;Humidity;BMP_temperature;BMP_pressure;BME280_temperature;BME280_humidity;BME280_pressure;Samples;Min_cycle;Max_cycle;Signal;HPM_P1;HPM_P2
2023/06/22 00:00:36;;;;;;;3.88;3.53;;;24.40;55.10;;;;;;4991549;28;20109;-51
2023/06/22 00:03:02;;;;;;;4.75;4.35;;;24.40;55.10;;;;;;4990805;28;20449;-48
2023/06/22 00:05:31;;;;;;;4.72;4.32;;;24.40;55.00;;;;;;4989737;28;20042;-51
2023/06/22 00:08:02;;;;;;;4.07;3.75;;;24.40;55.00;;;;;;4990971;28;20113;-51
2023/06/22 00:10:28;;;;;;;6.10;4.45;;;24.30;54.90;;;;;;4990156;28;20038;-50
2023/06/22 00:12:55;;;;;;;4.93;4.10;;;24.30;54.80;;;;;;4989958;28;20046;-51
2023/06/22 00:15:22;;;;;;;4.20;3.83;;;24.30;54.80;;;;;;4991174;28;20045;-50
2023/06/22 00:17:51;;;;;;;4.80;4.22;;;24.20;54.90;;;;;;4991944;28;20035;-50
2023/06/22 00:20:18;;;;;;;4.20;3.80;;;24.20;55.00;;;;;;4989459;28;20038;-49
2023/06/22 00:22:51;;;;;;;6.38;4.07;;;24.20;55.00;;;;;;4988410;28;20621;-51
2023/06/22 00:25:18;;;;;;;4.00;3.70;;;24.10;55.70;;;;;;4988101;28;20125;-50
2023/06/22 00:27:44;;;;;;;4.90;4.10;;;24.10;55.10;;;;;;4991575;28;20038;-50
2023/06/22 00:30:11;;;;;;;4.60;4.20;;;24.00;55.10;;;;;;4989535;28;20042;-50
2023/06/22 00:32:43;;;;;;;4.20;3.83;;;24.00;55.20;;;;;;4987839;28;20035;-50
2023/06/22 00:35:13;;;;;;;4.90;4.50;;;24.00;55.30;;;;;;4988233;28;20045;-49
2023/06/22 00:37:42;;;;;;;3.88;3.58;;;23.90;55.30;;;;;;4991277;28;20122;-51
2023/06/22 00:40:14;;;;;;;4.32;3.80;;;23.80;55.40;;;;;;4985700;28;20096;-52
2023/06/22 00:42:43;;;;;;;6.20;5.32;;;23.80;55.60;;;;;;4991473;28;20046;-51
2023/06/22 00:45:10;;;;;;;4.88;4.38;;;23.80;55.70;;;;;;4989157;28;20042;-50
2023/06/22 00:47:37;;;;;;;4.85;4.45;;;23.80;55.70;;;;;;4989849;28;20046;-50
2023/06/22 00:50:10;;;;;;;5.90;4.53;;;23.70;55.80;;;;;;4984352;28;20042;-48
2023/06/22 00:52:43;;;;;;;4.88;4.47;;;23.70;55.80;;;;;;4991144;28;20042;-49
2023/06/22 00:55:10;;;;;;;5.50;5.00;;;23.70;55.90;;;;;;4982965;28;20046;-50
2023/06/22 00:57:48;;;;;;;6.25;4.60;;;23.70;55.80;;;;;;4991047;28;20316;-50
2023/06/22 01:00:19;;;;;;;5.47;4.65;;;23.60;56.40;;;;;;4988516;28;20073;-51
2023/06/22 01:02:51;;;;;;;5.95;4.82;;;23.60;56.10;;;;;;4985776;28;20124;-51
2023/06/22 01:05:20;;;;;;;6.25;5.65;;;23.60;56.30;;;;;;4996942;28;20042;-50
2023/06/22 01:07:55;;;;;;;6.60;6.00;;;23.60;56.40;;;;;;4972608;28;20070;-51
2023/06/22 01:10:51;;;;;;;6.38;5.78;;;23.70;56.70;;;;;;4987173;28;20057;-48
2023/06/22 01:13:44;;;;;;;6.85;6.25;;;23.60;57.10;;;;;;4982100;28;20072;-50
2023/06/22 01:16:31;;;;;;;6.82;6.32;;;23.70;57.50;;;;;;4982353;28;20125;-48
2023/06/22 01:19:05;;;;;;;7.78;6.65;;;23.70;57.40;;;;;;4984543;28;20070;-50
2023/06/22 01:21:32;;;;;;;8.25;7.50;;;23.70;57.30;;;;;;4985378;28;20085;-51
2023/06/22 01:24:26;;;;;;;7.75;7.03;;;23.70;57.10;;;;;;4982055;28;20043;-51
2023/06/22 01:27:08;;;;;;;7.13;6.53;;;23.80;57.80;;;;;;4989392;28;20447;-51
2023/06/22 01:29:38;;;;;;;9.30;7.67;;;23.80;57.50;;;;;;4989686;28;20038;-49
2023/06/22 01:32:06;;;;;;;9.30;7.75;;;23.80;57.10;;;;;;4985445;28;20294;-48
2023/06/22 01:34:40;;;;;;;8.63;7.78;;;23.80;57.00;;;;;;4987939;28;20775;-51
2023/06/22 01:37:13;;;;;;;9.52;8.57;;;23.90;57.00;;;;;;4989757;28;20046;-50
2023/06/22 01:39:42;;;;;;;10.18;8.38;;;23.90;57.20;;;;;;4986873;28;20057;-51
2023/06/22 01:42:14;;;;;;;9.48;8.13;;;23.90;57.10;;;;;;4989294;28;20038;-51
2023/06/22 01:44:43;;;;;;;9.10;8.20;;;24.00;57.40;;;;;;4973081;28;20039;-51
2023/06/22 01:47:11;;;;;;;8.65;7.88;;;23.90;57.20;;;;;;4981808;28;20053;-50
2023/06/22 01:49:41;;;;;;;9.52;8.40;;;24.00;57.90;;;;;;4985183;28;20039;-50
2023/06/22 01:52:07;;;;;;;9.38;7.88;;;24.00;57.30;;;;;;4990495;28;20125;-51
2023/06/22 01:54:34;;;;;;;11.60;8.55;;;24.00;57.40;;;;;;4981978;28;20050;-51
2023/06/22 01:57:03;;;;;;;10.63;8.73;;;24.00;57.40;;;;;;4989356;28;20035;-51
2023/06/22 01:59:41;;;;;;;9.68;8.68;;;24.00;57.20;;;;;;4988746;28;20069;-51
2023/06/22 02:02:11;;;;;;;9.70;8.68;;;24.00;57.60;;;;;;4985249;28;20104;-49
2023/06/22 02:04:54;;;;;;;9.30;8.40;;;23.90;57.70;;;;;;4989158;28;20039;-49
2023/06/22 02:07:33;;;;;;;8.77;7.97;;;24.00;58.30;;;;;;4988859;28;20448;-50
2023/06/22 02:10:06;;;;;;;9.50;8.48;;;24.00;58.20;;;;;;4987905;28;20065;-51
2023/06/22 02:12:34;;;;;;;10.13;8.17;;;24.00;57.90;;;;;;4985153;28;20040;-48
2023/06/22 02:15:02;;;;;;;9.85;7.50;;;23.90;58.00;;;;;;4993356;28;20053;-52
2023/06/22 02:17:33;;;;;;;8.15;7.45;;;24.00;58.30;;;;;;4992619;28;20050;-51
2023/06/22 02:20:04;;;;;;;8.57;7.68;;;24.00;58.40;;;;;;4990245;28;20046;-49
2023/06/22 02:22:31;;;;;;;9.07;8.18;;;24.00;58.30;;;;;;4992282;28;20129;-49
2023/06/22 02:25:03;;;;;;;9.63;8.40;;;24.00;58.20;;;;;;4989078;28;20052;-51
2023/06/22 02:27:29;;;;;;;9.02;8.13;;;23.90;57.80;;;;;;4992561;28;20038;-51
2023/06/22 02:29:59;;;;;;;9.90;8.95;;;24.00;58.10;;;;;;4992933;28;20038;-51
2023/06/22 02:32:29;;;;;;;11.35;8.65;;;23.90;58.20;;;;;;4990382;28;20530;-50
2023/06/22 02:35:06;;;;;;;10.98;8.90;;;23.90;58.20;;;;;;4991588;28;20104;-51
2023/06/22 02:37:33;;;;;;;9.75;8.40;;;24.00;58.40;;;;;;4991413;28;20062;-51
2023/06/22 02:40:00;;;;;;;8.73;7.85;;;23.90;58.40;;;;;;4991603;28;20527;-51
2023/06/22 02:42:28;;;;;;;9.70;8.70;;;23.90;58.50;;;;;;4991356;28;20050;-51
2023/06/22 02:44:58;;;;;;;9.03;8.13;;;23.90;58.60;;;;;;4992687;28;20047;-49
2023/06/22 02:47:25;;;;;;;9.27;8.48;;;23.90;58.50;;;;;;4992487;28;20038;-52
2023/06/22 02:49:52;;;;;;;10.02;9.02;;;23.90;58.70;;;;;;4987193;28;20050;-51
2023/06/22 02:52:22;;;;;;;10.25;8.77;;;23.90;58.50;;;;;;4990086;28;20443;-49
2023/06/22 02:54:48;;;;;;;11.15;9.15;;;23.80;58.50;;;;;;4982256;28;20046;-51
2023/06/22 02:57:15;;;;;;;10.73;9.73;;;24.00;58.60;;;;;;4993211;28;20462;-49
2023/06/22 02:59:44;;;;;;;15.20;9.93;;;23.80;58.50;;;;;;4991461;28;20816;-51
2023/06/22 03:02:18;;;;;;;11.48;10.38;;;23.80;58.10;;;;;;4991301;28;20046;-50
2023/06/22 03:04:53;;;;;;;10.60;9.60;;;23.80;58.30;;;;;;4986435;28;20069;-50
2023/06/22 03:07:20;;;;;;;10.35;9.40;;;23.70;58.40;;;;;;5000918;28;20498;-50
2023/06/22 03:09:54;;;;;;;13.68;9.90;;;23.70;58.50;;;;;;5007808;28;20050;-49
2023/06/22 03:12:22;;;;;;;10.25;9.23;;;23.70;58.60;;;;;;4990225;28;20121;-51
2023/06/22 03:14:52;;;;;;;;;;;23.70;58.60;;;;;;4989110;28;20042;-51
2023/06/22 03:17:24;;;;;;;9.43;8.52;;;23.80;58.00;;;;;;4991490;28;19936;-49
2023/06/22 03:19:51;;;;;;;11.00;9.93;;;23.70;58.50;;;;;;4991342;28;20050;-51
2023/06/22 03:22:19;;;;;;;11.80;10.10;;;23.70;58.30;;;;;;4989594;28;20045;-50
2023/06/22 03:24:45;;;;;;;11.57;10.15;;;23.60;58.30;;;;;;4999936;28;20133;-48
2023/06/22 03:27:14;;;;;;;11.80;10.05;;;23.60;58.70;;;;;;4992405;28;20491;-50
2023/06/22 03:29:41;;;;;;;11.30;10.15;;;23.60;58.80;;;;;;4990864;28;20046;-51
2023/06/22 03:32:08;;;;;;;12.07;10.60;;;23.60;58.90;;;;;;5008280;28;20136;-50
2023/06/22 03:34:35;;;;;;;11.38;9.30;;;23.50;58.90;;;;;;4989404;28;20046;-49
2023/06/22 03:37:03;;;;;;;13.27;10.70;;;23.50;58.80;;;;;;5005335;28;20061;-48
2023/06/22 03:39:32;;;;;;;11.40;10.20;;;23.50;59.00;;;;;;4988941;28;20042;-50
2023/06/22 03:41:59;;;;;;;12.32;10.77;;;23.50;59.30;;;;;;4991998;28;20050;-51
2023/06/22 03:44:36;;;;;;;12.25;10.57;;;23.50;59.30;;;;;;4992433;28;20046;-50
2023/06/22 03:47:07;;;;;;;12.48;11.15;;;23.40;59.60;;;;;;4987527;28;20436;-50
2023/06/22 03:49:35;;;;;;;12.85;11.55;;;23.50;59.50;;;;;;4991978;28;20042;-51
2023/06/22 03:52:05;;;;;;;12.65;11.00;;;23.50;59.50;;;;;;4991857;28;20047;-51
2023/06/22 03:54:32;;;;;;;11.98;10.77;;;23.50;59.30;;;;;;4989102;28;20121;-48
2023/06/22 03:57:01;;;;;;;11.60;10.43;;;23.50;59.70;;;;;;4991743;28;20307;-51
2023/06/22 03:59:27;;;;;;;13.77;11.48;;;23.50;59.80;;;;;;4992989;28;20034;-50
2023/06/22 04:02:00;;;;;;;13.07;11.70;;;23.50;59.60;;;;;;4991208;28;20078;-51
2023/06/22 04:04:31;;;;;;;12.13;10.85;;;23.50;59.70;;;;;;4991966;28;20442;-51
2023/06/22 04:07:00;;;;;;;13.23;11.57;;;23.50;59.40;;;;;;4991511;28;20617;-53
2023/06/22 04:09:27;;;;;;;13.38;11.50;;;23.60;59.40;;;;;;4992093;28;20134;-50
2023/06/22 04:11:53;;;;;;;12.43;11.32;;;23.50;59.60;;;;;;4992556;28;20685;-49
2023/06/22 04:14:22;;;;;;;12.57;11.27;;;23.60;59.60;;;;;;4991885;28;20632;-50
2023/06/22 04:16:49;;;;;;;14.10;12.55;;;23.60;59.60;;;;;;4991495;28;20084;-49
2023/06/22 04:19:17;;;;;;;12.52;10.95;;;23.60;59.60;;;;;;4991577;28;20113;-52
2023/06/22 04:21:44;;;;;;;12.45;11.25;;;23.60;59.60;;;;;;4991676;28;20072;-50
2023/06/22 04:24:11;;;;;;;13.27;11.57;;;23.70;59.60;;;;;;4990244;28;20121;-48
2023/06/22 04:26:40;;;;;;;12.80;11.32;;;23.70;59.50;;;;;;4990273;28;20061;-51
2023/06/22 04:29:08;;;;;;;12.88;11.45;;;23.70;59.40;;;;;;4989478;28;20744;-48
2023/06/22 04:31:38;;;;;;;12.05;10.85;;;23.80;59.30;;;;;;4990925;28;20043;-48
2023/06/22 04:34:06;;;;;;;11.82;10.63;;;23.80;59.30;;;;;;4989202;28;20046;-51
2023/06/22 04:36:41;;;;;;;13.73;11.82;;;23.80;59.30;;;;;;4990476;28;20439;-53
2023/06/22 04:39:09;;;;;;;13.82;12.07;;;23.80;59.70;;;;;;4991534;28;20050;-48
2023/06/22 04:41:43;;;;;;;13.35;11.95;;;23.90;59.50;;;;;;4991095;28;20050;-52
2023/06/22 04:44:23;;;;;;;11.80;10.45;;;23.90;60.20;;;;;;4990794;28;20126;-51
2023/06/22 04:47:02;;;;;;;14.00;11.60;;;23.90;60.30;;;;;;4990467;28;20041;-51
2023/06/22 04:49:33;;;;;;;14.07;11.45;;;24.00;59.90;;;;;;4995467;28;20045;-52
2023/06/22 04:52:01;;;;;;;13.90;11.35;;;24.00;59.50;;;;;;4990482;28;20069;-51
2023/06/22 04:54:28;;;;;;;12.57;11.18;;;24.00;59.30;;;;;;4989742;28;20039;-52
2023/06/22 04:56:57;;;;;;;11.63;10.48;;;24.00;59.20;;;;;;4990407;28;20462;-50
2023/06/22 04:59:28;;;;;;;12.80;11.57;;;24.00;59.00;;;;;;4991449;28;20400;-52
2023/06/22 05:02:00;;;;;;;11.95;10.75;;;24.00;59.10;;;;;;4991098;28;20046;-49
2023/06/22 05:04:31;;;;;;;11.73;10.50;;;24.00;59.10;;;;;;4989547;28;20038;-52
2023/06/22 05:07:00;;;;;;;12.45;11.25;;;24.00;59.00;;;;;;4990202;28;20097;-50
2023/06/22 05:09:27;;;;;;;12.93;11.70;;;24.00;59.10;;;;;;4991599;28;20046;-52
2023/06/22 05:11:53;;;;;;;12.68;11.38;;;24.10;59.00;;;;;;4989621;28;20046;-48
2023/06/22 05:14:20;;;;;;;12.20;11.00;;;24.10;59.10;;;;;;4990719;28;20129;-48
2023/06/22 05:16:48;;;;;;;11.90;10.57;;;24.10;59.20;;;;;;4989479;28;20073;-53
2023/06/22 05:19:15;;;;;;;13.05;11.65;;;24.10;59.10;;;;;;4979384;28;20047;-49
2023/06/22 05:21:41;;;;;;;13.90;12.43;;;24.10;59.20;;;;;;4987050;28;20045;-50
2023/06/22 05:24:08;;;;;;;13.00;11.70;;;24.20;59.20;;;;;;4988785;28;20092;-52
2023/06/22 05:26:35;;;;;;;12.43;11.07;;;24.20;59.30;;;;;;4989229;28;20073;-52
2023/06/22 05:29:03;;;;;;;12.48;11.27;;;24.20;59.40;;;;;;4989394;28;20286;-52
2023/06/22 05:31:29;;;;;;;13.45;11.18;;;24.20;59.80;;;;;;4987240;28;20046;-50
2023/06/22 05:33:56;;;;;;;14.32;12.00;;;24.20;59.50;;;;;;4988597;28;20119;-49
2023/06/22 05:36:24;;;;;;;13.48;11.25;;;24.20;59.50;;;;;;4988663;28;20050;-51
2023/06/22 05:38:52;;;;;;;12.50;11.23;;;24.30;59.30;;;;;;4989347;28;20042;-48
2023/06/22 05:41:19;;;;;;;12.95;11.65;;;24.30;59.50;;;;;;4989279;28;20521;-48
2023/06/22 05:43:46;;;;;;;13.25;11.85;;;24.30;59.60;;;;;;4989531;28;20042;-48
2023/06/22 05:46:13;;;;;;;12.13;10.85;;;24.30;59.60;;;;;;4987699;28;20073;-52
2023/06/22 05:48:39;;;;;;;18.30;12.45;;;24.30;59.70;;;;;;4989011;28;20034;-48
2023/06/22 05:51:06;;;;;;;11.90;10.70;;;24.30;59.40;;;;;;4989062;28;20042;-52
2023/06/22 05:53:32;;;;;;;15.48;13.35;;;24.30;59.30;;;;;;4979333;28;20574;-52
2023/06/22 05:55:59;;;;;;;13.70;11.25;;;24.30;59.60;;;;;;4988909;28;20522;-52
2023/06/22 05:58:26;;;;;;;13.82;12.50;;;24.30;60.00;;;;;;4989310;28;20070;-48
2023/06/22 06:00:52;;;;;;;13.48;12.07;;;24.30;60.60;;;;;;4988635;28;20422;-51
2023/06/22 06:03:19;;;;;;;13.15;11.77;;;24.30;60.40;;;;;;4984860;28;20149;-50
2023/06/22 06:05:45;;;;;;;14.43;12.63;;;24.30;60.40;;;;;;4980310;28;20125;-53
2023/06/22 06:08:12;;;;;;;14.70;11.90;;;24.40;60.50;;;;;;4983110;28;20085;-51
2023/06/22 06:10:39;;;;;;;14.45;12.90;;;24.30;60.70;;;;;;4988655;28;20109;-49
2023/06/22 06:13:06;;;;;;;14.75;13.35;;;24.30;60.80;;;;;;4985419;28;20130;-52
2023/06/22 06:15:34;;;;;;;14.68;13.07;;;24.30;60.70;;;;;;4993857;28;20086;-54
2023/06/22 06:18:02;;;;;;;14.15;12.57;;;24.30;61.00;;;;;;4978015;28;20178;-52
2023/06/22 06:20:29;;;;;;;14.57;13.10;;;24.30;60.80;;;;;;4982931;28;20051;-51
2023/06/22 06:22:56;;;;;;;15.23;13.20;;;24.30;61.00;;;;;;4976766;28;20078;-52
2023/06/22 06:25:23;;;;;;;14.32;13.02;;;24.30;61.10;;;;;;4987975;28;20121;-53
2023/06/22 06:27:51;;;;;;;13.75;12.48;;;24.20;61.40;;;;;;4979755;28;20486;-50
2023/06/22 06:30:18;;;;;;;14.90;13.30;;;24.30;61.50;;;;;;4981149;28;20057;-52
2023/06/22 06:32:46;;;;;;;14.23;12.82;;;24.20;61.40;;;;;;4984986;28;20130;-49
2023/06/22 06:35:16;;;;;;;14.95;13.43;;;24.20;61.40;;;;;;4980528;28;20455;-51
2023/06/22 06:37:52;;;;;;;15.10;13.63;;;24.20;61.60;;;;;;4981149;28;20054;-48
2023/06/22 06:40:18;;;;;;;14.07;12.57;;;24.20;62.30;;;;;;4980689;28;20403;-52
2023/06/22 06:42:48;;;;;;;15.52;14.02;;;24.20;61.80;;;;;;4986649;28;20054;-52
2023/06/22 06:45:18;;;;;;;15.73;14.15;;;24.20;61.90;;;;;;4986084;28;20038;-49
2023/06/22 06:47:45;;;;;;;16.33;13.75;;;24.20;61.80;;;;;;4982856;28;20045;-49
2023/06/22 06:50:12;;;;;;;15.38;13.68;;;24.20;61.70;;;;;;4980701;28;20031;-51
2023/06/22 06:52:39;;;;;;;15.70;14.10;;;24.10;62.00;;;;;;4983657;28;20514;-49
2023/06/22 06:55:11;;;;;;;16.70;14.90;;;24.10;62.20;;;;;;4984071;28;20046;-48
2023/06/22 06:57:39;;;;;;;;;;;24.10;62.40;;;;;;4977267;28;20050;-50
2023/06/22 07:00:10;;;;;;;14.82;13.23;;;24.20;61.90;;;;;;4983324;28;20020;-47
2023/06/22 07:02:41;;;;;;;14.57;13.15;;;24.20;62.50;;;;;;4983389;28;20088;-48
2023/06/22 07:05:10;;;;;;;15.05;13.55;;;24.20;63.00;;;;;;4985710;28;20675;-51
2023/06/22 07:07:37;;;;;;;16.25;14.30;;;24.30;63.10;;;;;;4981215;28;21658;-47
2023/06/22 07:10:06;;;;;;;16.45;14.75;;;24.30;62.70;;;;;;4982915;28;20061;-49
2023/06/22 07:12:33;;;;;;;16.95;15.02;;;24.40;62.70;;;;;;4984607;28;20066;-48
2023/06/22 07:15:08;;;;;;;16.00;13.77;;;24.50;62.80;;;;;;4984653;28;20043;-48
2023/06/22 07:17:41;;;;;;;15.70;14.10;;;24.50;63.10;;;;;;4982490;28;20122;-49
2023/06/22 07:20:10;;;;;;;15.23;13.73;;;24.50;62.60;;;;;;4988378;28;20380;-50
2023/06/22 07:22:44;;;;;;;15.60;14.00;;;24.50;62.50;;;;;;4984051;28;20117;-47
2023/06/22 07:25:14;;;;;;;14.20;12.88;;;24.60;62.40;;;;;;4991752;28;20042;-48
2023/06/22 07:27:56;;;;;;;19.40;14.68;;;24.60;62.30;;;;;;4992337;28;20097;-49
2023/06/22 07:30:23;;;;;;;16.17;14.30;;;24.60;62.40;;;;;;4991964;28;20061;-51
2023/06/22 07:32:49;;;;;;;15.80;14.20;;;24.70;62.40;;;;;;4990411;28;20105;-51
2023/06/22 07:35:16;;;;;;;16.23;14.52;;;24.70;62.80;;;;;;4992807;28;20525;-49
2023/06/22 07:37:43;;;;;;;16.40;14.80;;;24.70;63.10;;;;;;4992027;28;20052;-51
2023/06/22 07:40:10;;;;;;;16.55;14.80;;;24.70;62.80;;;;;;4991536;28;20047;-48
2023/06/22 07:42:37;;;;;;;16.02;14.38;;;24.70;62.80;;;;;;4984947;28;20052;-47
2023/06/22 07:45:05;;;;;;;17.05;15.30;;;24.80;62.80;;;;;;4982550;28;20122;-48
2023/06/22 07:47:34;;;;;;;15.15;13.70;;;24.80;62.90;;;;;;4987527;28;20045;-51
2023/06/22 07:50:03;;;;;;;17.77;13.75;;;24.80;62.80;;;;;;4991884;28;20057;-48
2023/06/22 07:52:30;;;;;;;16.75;15.00;;;24.90;62.80;;;;;;4990318;28;20410;-49
2023/06/22 07:54:57;;;;;;;15.50;13.88;;;25.00;62.90;;;;;;4991845;28;20038;-48
2023/06/22 07:57:32;;;;;;;15.50;13.98;;;25.10;62.70;;;;;;4991410;28;20044;-52
2023/06/22 07:59:59;;;;;;;15.23;13.82;;;25.10;62.90;;;;;;4992216;28;20060;-49
2023/06/22 08:02:27;;;;;;;13.98;12.65;;;25.30;62.50;;;;;;4990823;28;20046;-51
2023/06/22 08:04:53;;;;;;;14.32;12.93;;;25.30;62.20;;;;;;4992804;28;20050;-48
2023/06/22 08:07:37;;;;;;;14.07;12.68;;;25.50;62.30;;;;;;4991401;28;20038;-48
2023/06/22 08:10:05;;;;;;;14.40;12.90;;;25.60;61.90;;;;;;4991677;28;20066;-47
2023/06/22 08:12:32;;;;;;;14.02;11.40;;;25.70;61.20;;;;;;4990344;28;20074;-50
2023/06/22 08:15:01;;;;;;;14.75;12.32;;;25.80;60.90;;;;;;4992539;28;20065;-49
2023/06/22 08:17:27;;;;;;;14.50;13.07;;;26.00;60.90;;;;;;4991303;28;20519;-48
2023/06/22 08:19:54;;;;;;;13.93;12.50;;;26.10;60.80;;;;;;4990613;28;20061;-48
2023/06/22 08:22:21;;;;;;;14.27;12.88;;;26.20;60.20;;;;;;4990950;28;20121;-50
2023/06/22 08:24:48;;;;;;;14.18;12.45;;;26.30;59.90;;;;;;4991316;28;20061;-49
2023/06/22 08:27:18;;;;;;;13.68;12.27;;;26.40;59.80;;;;;;4990215;28;20043;-48
2023/06/22 08:29:47;;;;;;;14.05;12.65;;;26.50;59.60;;;;;;4991920;28;20570;-48
2023/06/22 08:32:14;;;;;;;13.68;12.38;;;26.60;59.20;;;;;;4990043;28;20086;-50
2023/06/22 08:34:42;;;;;;;15.10;13.45;;;26.70;59.20;;;;;;4988677;28;20049;-48
2023/06/22 08:37:09;;;;;;;15.38;12.35;;;26.80;58.60;;;;;;4983789;28;20146;-49
2023/06/22 08:39:35;;;;;;;16.35;12.13;;;26.90;58.40;;;;;;4984606;28;20498;-47
2023/06/22 08:42:02;;;;;;;13.43;12.02;;;26.90;58.30;;;;;;4984572;28;20057;-49
2023/06/22 08:44:29;;;;;;;13.93;11.63;;;27.00;58.20;;;;;;4981473;28;20130;-48
2023/06/22 08:46:56;;;;;;;12.65;11.38;;;27.00;58.40;;;;;;4983012;28;20388;-48
2023/06/22 08:49:22;;;;;;;14.35;12.95;;;27.10;58.20;;;;;;4981174;28;20042;-49
2023/06/22 08:51:49;;;;;;;14.23;11.57;;;27.20;57.80;;;;;;4990525;28;20035;-50
2023/06/22 08:54:16;;;;;;;13.00;11.70;;;27.30;57.30;;;;;;4983439;28;20061;-49
2023/06/22 08:56:44;;;;;;;12.68;11.40;;;27.30;56.80;;;;;;4991682;28;20042;-48
2023/06/22 08:59:10;;;;;;;12.63;11.32;;;27.40;56.90;;;;;;4990352;28;20046;-48
2023/06/22 09:01:37;;;;;;;13.48;11.75;;;27.50;56.70;;;;;;4989846;28;20042;-47
2023/06/22 09:04:05;;;;;;;12.88;11.60;;;27.50;56.80;;;;;;4990972;28;20134;-50
2023/06/22 09:06:32;;;;;;;12.93;11.63;;;27.60;56.50;;;;;;4990885;28;20089;-49
2023/06/22 09:09:02;;;;;;;14.43;12.18;;;27.70;56.80;;;;;;4990563;28;20070;-48
2023/06/22 09:11:29;;;;;;;13.63;12.32;;;27.70;56.60;;;;;;4990066;28;20039;-48
2023/06/22 09:13:55;;;;;;;13.10;11.15;;;27.80;56.50;;;;;;4998804;28;20157;-47
2023/06/22 09:16:22;;;;;;;12.63;11.38;;;27.90;56.20;;;;;;4990528;28;20121;-50
2023/06/22 09:18:49;;;;;;;11.70;10.60;;;28.00;55.90;;;;;;4990449;28;20050;-50
2023/06/22 09:21:15;;;;;;;11.63;10.43;;;28.10;55.60;;;;;;4988704;28;20072;-49
2023/06/22 09:23:42;;;;;;;12.18;10.73;;;28.10;55.50;;;;;;4989426;28;20403;-49
2023/06/22 09:26:09;;;;;;;12.77;10.40;;;28.20;55.60;;;;;;4990011;28;20030;-51
2023/06/22 09:28:36;;;;;;;11.68;10.57;;;28.20;55.70;;;;;;4990607;28;20057;-48
2023/06/22 09:31:04;;;;;;;11.50;10.38;;;28.20;55.70;;;;;;4988999;28;20046;-48
2023/06/22 09:33:30;;;;;;;11.68;10.48;;;28.20;55.60;;;;;;4990302;28;20045;-48
2023/06/22 09:35:57;;;;;;;11.35;10.25;;;28.20;55.60;;;;;;4990338;28;20046;-48
2023/06/22 09:38:24;;;;;;;11.18;9.85;;;28.30;56.10;;;;;;4988328;28;20077;-52
2023/06/22 09:40:50;;;;;;;10.48;9.48;;;28.40;55.90;;;;;;4988043;28;20046;-53
2023/06/22 09:43:17;;;;;;;10.45;9.45;;;28.40;55.40;;;;;;4988255;28;20125;-49
2023/06/22 09:45:44;;;;;;;11.50;9.80;;;28.50;55.60;;;;;;4994169;28;20125;-52
2023/06/22 09:48:11;;;;;;;9.65;8.70;;;28.60;54.40;;;;;;4990095;28;20053;-52
2023/06/22 09:50:38;;;;;;;11.25;8.77;;;28.60;54.50;;;;;;4989126;28;20047;-49
2023/06/22 09:53:05;;;;;;;8.73;7.93;;;28.70;54.40;;;;;;4987394;28;20057;-52
2023/06/22 09:55:31;;;;;;;8.63;7.82;;;28.70;54.10;;;;;;4988892;28;20049;-51
2023/06/22 09:58:05;;;;;;;9.20;8.30;;;28.80;54.20;;;;;;4989746;28;20047;-53
2023/06/22 10:00:32;;;;;;;9.85;8.85;;;28.90;54.00;;;;;;4989698;28;20053;-52
2023/06/22 10:02:58;;;;;;;12.45;9.82;;;28.90;53.90;;;;;;4988339;28;20039;-52
2023/06/22 10:05:27;;;;;;;12.45;10.52;;;29.00;54.00;;;;;;4989110;28;20034;-51
2023/06/22 10:07:54;;;;;;;11.90;10.70;;;29.00;53.70;;;;;;4988649;28;20042;-50
2023/06/22 10:10:21;;;;;;;12.02;10.73;;;29.00;53.30;;;;;;4988987;28;20038;-48
2023/06/22 10:13:02;;;;;;;11.27;10.07;;;29.00;53.20;;;;;;4987744;28;20046;-51
2023/06/22 10:15:29;;;;;;;12.50;11.25;;;29.10;53.00;;;;;;4987874;28;20137;-48
2023/06/22 10:17:56;;;;;;;14.55;11.82;;;29.00;53.10;;;;;;4989042;28;20058;-49
2023/06/22 10:20:23;;;;;;;13.88;11.52;;;28.90;52.90;;;;;;4988171;28;20399;-49
2023/06/22 10:22:50;;;;;;;12.95;11.65;;;28.80;52.90;;;;;;4984887;28;20038;-53
2023/06/22 10:25:17;;;;;;;12.60;11.30;;;28.70;53.00;;;;;;4995965;28;20100;-52
2023/06/22 10:27:44;;;;;;;13.02;11.48;;;28.60;53.50;;;;;;4990557;28;20117;-51
2023/06/22 10:30:13;;;;;;;13.23;11.15;;;28.50;53.80;;;;;;4990515;28;20077;-52
2023/06/22 10:32:41;;;;;;;13.45;12.15;;;28.40;54.20;;;;;;4989006;28;20065;-50
2023/06/22 10:35:08;;;;;;;13.75;12.38;;;28.40;54.40;;;;;;4993049;28;20050;-48
2023/06/22 10:37:35;;;;;;;13.32;11.93;;;28.30;55.50;;;;;;4984439;28;20039;-49
2023/06/22 10:40:03;;;;;;;14.77;13.20;;;28.20;55.70;;;;;;4985164;28;20092;-53
2023/06/22 10:42:30;;;;;;;14.07;12.73;;;28.20;56.60;;;;;;4982666;28;20125;-50
2023/06/22 10:44:57;;;;;;;14.90;13.45;;;28.10;57.90;;;;;;4984080;28;20069;-52
2023/06/22 10:47:23;;;;;;;14.05;12.55;;;28.00;57.70;;;;;;4995170;28;20058;-50
2023/06/22 10:49:53;;;;;;;16.33;14.55;;;28.00;58.40;;;;;;4992259;28;20088;-51
2023/06/22 10:52:19;;;;;;;16.70;13.98;;;28.00;58.90;;;;;;4992677;28;20113;-53
2023/06/22 10:54:46;;;;;;;16.55;14.75;;;27.90;58.40;;;;;;4999361;28;20096;-52
2023/06/22 10:57:15;;;;;;;17.25;14.40;;;27.90;58.20;;;;;;4992783;28;20129;-53
2023/06/22 10:59:42;;;;;;;16.50;14.75;;;27.90;59.10;;;;;;4992220;28;20125;-52
2023/06/22 11:02:09;;;;;;;15.82;13.82;;;27.80;60.00;;;;;;4994737;28;20034;-53
2023/06/22 11:04:35;;;;;;;16.60;14.15;;;27.80;59.90;;;;;;4993081;28;20038;-53
2023/06/22 11:07:02;;;;;;;19.63;15.05;;;27.70;60.30;;;;;;4992458;28;20065;-50
2023/06/22 11:09:29;;;;;;;17.88;16.10;;;27.70;60.40;;;;;;4990587;28;20038;-52
2023/06/22 11:11:58;;;;;;;17.40;15.68;;;27.60;59.80;;;;;;4989237;28;20462;-51
2023/06/22 11:14:25;;;;;;;17.38;15.63;;;27.50;60.30;;;;;;4989379;28;20038;-51
2023/06/22 11:16:52;;;;;;;18.77;16.90;;;27.40;60.40;;;;;;4992558;28;20121;-51
2023/06/22 11:19:19;;;;;;;18.30;16.25;;;27.40;60.20;;;;;;4990696;28;20038;-51
2023/06/22 11:21:48;;;;;;;17.85;16.05;;;27.30;60.40;;;;;;4992241;28;20082;-52
2023/06/22 11:24:15;;;;;;;18.75;16.75;;;27.20;60.80;;;;;;4994616;28;20052;-52
2023/06/22 11:26:43;;;;;;;18.88;16.95;;;27.20;61.20;;;;;;4997283;28;20056;-52
2023/06/22 11:29:09;;;;;;;19.95;17.40;;;27.10;61.70;;;;;;4992567;28;20069;-48
2023/06/22 11:31:49;;;;;;;19.15;17.08;;;27.00;61.80;;;;;;4990691;28;20130;-53
2023/06/22 11:34:16;;;;;;;26.02;19.98;;;27.00;62.60;;;;;;4988520;28;20057;-53
2023/06/22 11:36:44;;;;;;;19.20;17.10;;;27.00;62.70;;;;;;4984861;28;20183;-52
2023/06/22 11:39:10;;;;;;;19.00;17.05;;;27.10;62.80;;;;;;4982173;28;20043;-49
2023/06/22 11:41:42;;;;;;;19.60;17.50;;;27.10;63.00;;;;;;4989035;28;20533;-53
2023/06/22 11:44:09;;;;;;;20.45;18.30;;;27.10;62.60;;;;;;4987550;28;20043;-51
2023/06/22 11:46:35;;;;;;;20.20;18.05;;;27.20;63.20;;;;;;4979989;28;20118;-53
2023/06/22 11:49:02;;;;;;;19.88;17.75;;;27.30;63.60;;;;;;4985523;28;20499;-52
2023/06/22 11:51:31;;;;;;;19.52;17.58;;;27.40;63.80;;;;;;4982076;28;20074;-53
2023/06/22 11:53:58;;;;;;;19.23;17.23;;;27.60;63.40;;;;;;4986958;28;20074;-53
2023/06/22 11:56:27;;;;;;;18.83;16.90;;;27.80;63.20;;;;;;4991776;28;20049;-53
2023/06/22 11:58:56;;;;;;;19.33;17.35;;;27.90;62.80;;;;;;4992697;28;20571;-53
2023/06/22 12:01:23;;;;;;;19.23;17.17;;;28.10;61.80;;;;;;4990516;28;20042;-52
2023/06/22 12:03:50;;;;;;;18.27;16.40;;;28.20;61.20;;;;;;4991647;28;20046;-51
2023/06/22 12:06:17;;;;;;;18.42;16.63;;;28.20;61.10;;;;;;4991342;28;20073;-52
2023/06/22 12:08:44;;;;;;;19.75;17.70;;;28.20;60.70;;;;;;4992214;28;20048;-51
2023/06/22 12:11:11;;;;;;;19.02;17.10;;;28.30;61.00;;;;;;4990695;28;20125;-53
2023/06/22 12:13:37;;;;;;;19.27;17.27;;;28.30;61.20;;;;;;4991813;28;20042;-52
2023/06/22 12:16:07;;;;;;;19.73;17.83;;;28.30;60.30;;;;;;4991260;28;20388;-53
2023/06/22 12:18:33;;;;;;;19.83;17.73;;;28.30;59.80;;;;;;4991367;28;20045;-52
2023/06/22 12:21:00;;;;;;;19.50;17.55;;;28.20;59.90;;;;;;4990869;28;20054;-53
2023/06/22 12:23:27;;;;;;;20.58;18.50;;;28.20;59.70;;;;;;4991334;28;20073;-52
2023/06/22 12:25:53;;;;;;;19.90;17.90;;;28.10;59.80;;;;;;4990312;28;20050;-53
2023/06/22 12:28:20;;;;;;;21.90;17.88;;;28.00;59.90;;;;;;4989354;28;20045;-53
2023/06/22 12:30:47;;;;;;;18.42;16.67;;;27.90;60.00;;;;;;4989562;28;20066;-53
2023/06/22 12:33:14;;;;;;;19.70;17.67;;;27.90;60.40;;;;;;4990894;28;20526;-50
2023/06/22 12:35:40;;;;;;;21.50;19.40;;;27.80;60.90;;;;;;4990611;28;20054;-53
2023/06/22 12:38:08;;;;;;;19.70;17.75;;;27.80;61.00;;;;;;4987461;28;20410;-48
2023/06/22 12:40:34;;;;;;;20.90;18.77;;;27.90;61.10;;;;;;4986671;28;20089;-53